Time;durP1;ratioP1;P1;durP2;ratioP2;P2;SDS_P1;SDS_P2;PMS_P1;PMS_P2;Temp;Humidity;BMP_temperature;BMP_pressure;BME280_temperature;BME280_humidity;BME280_pressure;Samples;Min_cycle;Max_cycle;Signal;HPM_P1;HPM_P2
2023/12/15 00:01:38;;;;;;;26.77;10.20;;;;;;;2.32;100.00;102109.13;6052101;28;20269;-71
2023/12/15 00:04:33;;;;;;;28.27;9.10;;;;;;;2.41;100.00;102116.63;6051517;28;20769;-72
2023/12/15 00:07:28;;;;;;;28.40;9.13;;;;;;;2.36;100.00;102110.72;6052218;28;20285;-73
2023/12/15 00:10:24;;;;;;;22.63;8.73;;;;;;;2.44;100.00;102118.25;6051833;28;20527;-73
2023/12/15 00:13:19;;;;;;;26.50;10.55;;;;;;;2.42;100.00;102120.09;6050114;28;20264;-73
2023/12/15 00:16:14;;;;;;;26.10;9.93;;;;;;;2.42;100.00;102114.88;6050435;28;20033;-72
2023/12/15 00:19:12;;;;;;;31.03;10.67;;;;;;;2.37;100.00;102115.88;6050606;28;20542;-72
2023/12/15 00:22:07;;;;;;;27.55;10.05;;;;;;;2.36;100.00;102108.94;6051321;28;20080;-72
2023/12/15 00:25:02;;;;;;;22.87;8.40;;;;;;;2.45;100.00;102120.81;6050597;28;20432;-72
2023/12/15 00:27:58;;;;;;;29.67;9.45;;;;;;;2.44;100.00;102118.25;6050732;28;20265;-72
2023/12/15 00:30:53;;;;;;;26.70;8.60;;;;;;;2.43;100.00;102122.66;6051395;28;20033;-72
2023/12/15 00:33:48;;;;;;;25.83;9.00;;;;;;;2.46;100.00;102126.91;6050964;28;20037;-72
2023/12/15 00:36:44;;;;;;;30.17;9.87;;;;;;;2.46;100.00;102129.53;6050524;28;20041;-72
2023/12/15 00:39:39;;;;;;;23.97;9.77;;;;;;;2.43;100.00;102130.50;6049147;28;20477;-72
2023/12/15 00:42:34;;;;;;;28.13;10.23;;;;;;;2.39;100.00;102129.75;6050859;28;20038;-73
2023/12/15 00:45:29;;;;;;;32.30;9.73;;;;;;;2.32;100.00;102146.63;6050542;28;20034;-72
2023/12/15 00:48:27;;;;;;;29.90;10.43;;;;;;;2.25;100.00;102149.53;6051339;28;20121;-72
2023/12/15 00:51:22;;;;;;;28.80;9.82;;;;;;;2.21;100.00;102156.63;6047315;28;20034;-73
2023/12/15 00:54:18;;;;;;;32.70;11.18;;;;;;;2.28;100.00;102158.09;6048670;28;20524;-73
2023/12/15 00:57:13;;;;;;;24.75;9.32;;;;;;;2.15;100.00;102159.47;6050054;28;20026;-73
2023/12/15 01:00:09;;;;;;;27.38;9.10;;;;;;;2.12;100.00;102148.28;6050695;28;20537;-72
2023/12/15 01:03:05;;;;;;;31.92;9.90;;;;;;;2.10;100.00;102158.78;6049173;28;20052;-72
2023/12/15 01:06:00;;;;;;;32.75;10.15;;;;;;;2.15;100.00;102162.09;6049105;28;20040;-72
2023/12/15 01:08:56;;;;;;;25.23;8.63;;;;;;;2.15;100.00;102180.41;6050161;28;20125;-72
2023/12/15 01:11:51;;;;;;;26.77;9.60;;;;;;;2.00;100.00;102170.50;6049400;28;20029;-72
2023/12/15 01:14:46;;;;;;;27.17;9.88;;;;;;;1.91;100.00;102181.28;6048725;28;20038;-72
2023/12/15 01:17:42;;;;;;;28.00;10.00;;;;;;;1.84;100.00;102189.41;6049050;28;20041;-72
2023/12/15 01:20:37;;;;;;;24.50;8.70;;;;;;;1.80;100.00;102193.88;6049055;28;20046;-72
2023/12/15 01:23:35;;;;;;;24.50;8.80;;;;;;;1.73;100.00;102188.03;6048654;28;20041;-72
2023/12/15 01:26:30;;;;;;;30.42;10.13;;;;;;;1.70;100.00;102177.69;6050203;28;20030;-72
2023/12/15 01:29:26;;;;;;;31.43;10.40;;;;;;;1.70;100.00;102187.28;6049143;28;20099;-72
2023/12/15 01:32:21;;;;;;;26.10;9.30;;;;;;;1.68;100.00;102194.34;6045901;28;20291;-72
2023/12/15 01:35:16;;;;;;;26.60;9.30;;;;;;;1.88;100.00;102201.47;6049625;28;20125;-72
2023/12/15 01:38:12;;;;;;;31.67;11.10;;;;;;;1.93;100.00;102204.78;6049428;28;20312;-73
2023/12/15 01:41:07;;;;;;;28.77;9.37;;;;;;;1.91;100.00;102207.44;6049887;28;20030;-71
2023/12/15 01:44:02;;;;;;;31.37;9.23;;;;;;;2.13;100.00;102215.38;6047705;28;20030;-72
2023/12/15 01:46:58;;;;;;;26.42;10.32;;;;;;;2.09;100.00;102226.88;6049558;28;20034;-71
2023/12/15 01:49:53;;;;;;;29.00;10.67;;;;;;;2.04;100.00;102213.94;6049329;28;20084;-73
2023/12/15 01:52:49;;;;;;;27.63;10.35;;;;;;;2.07;100.00;102208.59;6048716;28;20045;-72
2023/12/15 01:55:44;;;;;;;27.83;10.67;;;;;;;2.09;100.00;102216.41;6048603;28;20551;-72
2023/12/15 01:58:39;;;;;;;31.50;11.23;;;;;;;2.01;100.00;102214.03;6049402;28;20033;-72
2023/12/15 02:01:34;;;;;;;27.83;9.50;;;;;;;2.05;100.00;102220.88;6044654;28;20265;-72
2023/12/15 02:04:30;;;;;;;28.70;11.30;;;;;;;2.06;100.00;102206.91;6046630;28;20473;-72
2023/12/15 02:07:25;;;;;;;30.63;9.63;;;;;;;2.08;100.00;102220.78;6049426;28;20119;-73
2023/12/15 02:10:20;;;;;;;29.70;10.63;;;;;;;2.17;100.00;102219.59;6049144;28;20064;-73
2023/12/15 02:13:16;;;;;;;34.10;11.00;;;;;;;2.19;100.00;102221.25;6047740;28;20026;-72
2023/12/15 02:16:11;;;;;;;32.00;12.30;;;;;;;2.28;100.00;102218.28;6048806;28;20334;-73
2023/12/15 02:19:06;;;;;;;33.27;11.13;;;;;;;2.31;100.00;102228.63;6048461;28;20115;-73
2023/12/15 02:22:02;;;;;;;34.53;10.30;;;;;;;2.33;100.00;102226.84;6051153;28;20448;-73
2023/12/15 02:24:57;;;;;;;26.37;10.73;;;;;;;2.36;100.00;102224.09;6050414;28;20053;-72
2023/12/15 02:27:53;;;;;;;34.40;10.13;;;;;;;2.44;100.00;102223.81;6048160;28;20033;-72
2023/12/15 02:30:49;;;;;;;34.83;13.10;;;;;;;2.38;100.00;102218.81;6048944;28;21792;-72
2023/12/15 02:33:44;;;;;;;32.03;10.07;;;;;;;2.42;100.00;102220.38;6048210;28;20026;-73
2023/12/15 02:36:39;;;;;;;31.50;11.33;;;;;;;2.40;100.00;102223.06;6047808;28;20026;-72
2023/12/15 02:39:38;;;;;;;29.27;11.30;;;;;;;2.50;100.00;102234.03;6047770;28;20064;-73
2023/12/15 02:42:33;;;;;;;35.17;11.82;;;;;;;2.42;100.00;102218.63;6047964;28;20045;-73
2023/12/15 02:45:28;;;;;;;30.87;11.27;;;;;;;2.47;100.00;102238.56;6046648;28;20034;-73
2023/12/15 02:48:24;;;;;;;34.80;11.97;;;;;;;2.50;100.00;102230.59;6047768;28;20268;-73
2023/12/15 02:51:29;;;;;;;36.67;11.73;;;;;;;2.51;100.00;102229.66;6047947;28;20045;-73
2023/12/15 02:54:25;;;;;;;32.67;11.63;;;;;;;2.52;100.00;102226.16;6047408;28;20018;-72
2023/12/15 02:57:20;;;;;;;33.57;10.83;;;;;;;2.52;100.00;102226.16;6048444;28;20088;-73
2023/12/15 03:00:16;;;;;;;34.50;12.97;;;;;;;2.57;100.00;102226.81;6048779;28;20026;-73
2023/12/15 03:03:11;;;;;;;37.78;12.15;;;;;;;2.54;100.00;102213.84;6049637;28;20153;-72
2023/12/15 03:06:06;;;;;;;31.30;10.18;;;;;;;2.53;100.00;102220.00;6052427;28;20037;-74
2023/12/15 03:09:02;;;;;;;33.33;12.45;;;;;;;2.58;100.00;102225.94;6050289;28;20038;-73
2023/12/15 03:11:57;;;;;;;32.33;10.43;;;;;;;2.66;100.00;102229.09;6052803;28;20113;-72
2023/12/15 03:14:52;;;;;;;35.63;12.57;;;;;;;2.64;100.00;102236.16;6052089;28;20037;-72
2023/12/15 03:17:48;;;;;;;36.67;11.83;;;;;;;2.63;100.00;102229.22;6052923;28;20044;-72
2023/12/15 03:20:46;;;;;;;31.10;10.97;;;;;;;2.60;100.00;102230.19;6053129;28;20392;-73
2023/12/15 03:23:41;;;;;;;32.72;11.90;;;;;;;2.59;100.00;102227.63;6054028;28;20029;-73
2023/12/15 03:26:36;;;;;;;30.37;11.80;;;;;;;2.63;100.00;102237.06;6051858;28;20469;-73
2023/12/15 03:29:33;;;;;;;30.90;11.03;;;;;;;2.72;100.00;102255.03;6052964;28;20018;-73
2023/12/15 03:32:29;;;;;;;33.58;12.05;;;;;;;2.78;100.00;102257.44;6052379;28;20729;-73
2023/12/15 03:35:24;;;;;;;29.63;10.83;;;;;;;2.76;100.00;102256.63;6048871;28;20033;-73
2023/12/15 03:38:20;;;;;;;28.93;10.40;;;;;;;2.80;100.00;102250.38;6052340;28;20778;-73
2023/12/15 03:41:15;;;;;;;34.90;10.43;;;;;;;2.75;100.00;102247.06;6052425;28;20061;-73
2023/12/15 03:44:10;;;;;;;27.40;10.33;;;;;;;2.78;100.00;102231.25;6051823;28;20029;-73
2023/12/15 03:47:08;;;;;;;25.67;9.63;;;;;;;2.88;100.00;102253.56;6049366;28;20052;-72
2023/12/15 03:50:03;;;;;;;33.78;10.90;;;;;;;2.92;100.00;102239.41;6048721;28;20387;-72
2023/12/15 03:52:59;;;;;;;24.77;9.45;;;;;;;2.97;100.00;102240.09;6051742;28;20477;-73
2023/12/15 03:55:54;;;;;;;33.53;10.77;;;;;;;3.00;100.00;102250.47;6052039;28;20658;-72
2023/12/15 03:58:49;;;;;;;25.33;9.13;;;;;;;2.98;100.00;102253.16;6052187;28;20063;-73
2023/12/15 04:01:44;;;;;;;30.73;10.30;;;;;;;3.02;100.00;102259.09;6050258;28;20029;-72
2023/12/15 04:04:42;;;;;;;31.60;9.30;;;;;;;2.97;100.00;102235.72;6048925;28;20034;-72
2023/12/15 04:07:38;;;;;;;32.03;9.93;;;;;;;3.02;100.00;102255.66;6049548;28;20034;-72
2023/12/15 04:10:33;;;;;;;29.00;9.95;;;;;;;3.00;100.00;102251.31;6051972;28;20030;-72
2023/12/15 04:13:28;;;;;;;30.67;9.80;;;;;;;3.10;100.00;102257.03;6050925;28;20042;-72
2023/12/15 04:16:24;;;;;;;26.40;9.10;;;;;;;3.06;100.00;102252.84;6051264;28;20033;-73
2023/12/15 04:19:19;;;;;;;26.88;9.10;;;;;;;3.05;100.00;102258.97;6051577;28;20060;-72
2023/12/15 04:22:14;;;;;;;25.50;8.57;;;;;;;3.06;100.00;102255.47;6051090;28;20100;-72
2023/12/15 04:25:10;;;;;;;28.10;9.03;;;;;;;3.14;100.00;102255.16;6048894;28;20416;-73
2023/12/15 04:28:05;;;;;;;27.60;10.03;;;;;;;3.09;100.00;102257.97;6052908;28;20033;-73
2023/12/15 04:31:00;;;;;;;25.20;9.70;;;;;;;3.12;100.00;102265.72;6050802;28;20277;-73
2023/12/15 04:33:56;;;;;;;25.57;8.60;;;;;;;3.13;100.00;102258.69;6049971;28;20034;-72
2023/12/15 04:36:51;;;;;;;30.73;11.32;;;;;;;2.98;100.00;102234.81;6049518;28;20116;-72
2023/12/15 04:39:46;;;;;;;24.20;8.40;;;;;;;3.22;100.00;102269.66;6051435;28;20465;-73
2023/12/15 04:42:42;;;;;;;27.05;9.23;;;;;;;3.18;100.00;102270.69;6067076;28;20030;-73
2023/12/15 04:45:38;;;;;;;26.53;8.70;;;;;;;3.18;100.00;102270.69;6050093;28;20088;-72
2023/12/15 04:48:33;;;;;;;23.00;8.63;;;;;;;3.17;100.00;102257.66;6050019;28;20040;-73
2023/12/15 04:51:29;;;;;;;24.17;8.93;;;;;;;3.19;100.00;102272.41;6048743;28;20041;-73
2023/12/15 04:54:24;;;;;;;28.70;9.13;;;;;;;3.12;100.00;102270.94;6053377;28;20045;-73
2023/12/15 04:57:19;;;;;;;25.83;8.95;;;;;;;3.09;100.00;102270.22;6050237;28;20040;-72
2023/12/15 05:00:15;;;;;;;28.33;9.40;;;;;;;3.10;100.00;102278.00;6049866;28;20026;-72
2023/12/15 05:03:10;;;;;;;27.63;9.65;;;;;;;3.04;100.00;102267.78;6049551;28;20033;-72
2023/12/15 05:06:06;;;;;;;26.47;9.33;;;;;;;3.04;100.00;102273.03;6050104;28;20033;-73
2023/12/15 05:09:04;;;;;;;33.22;9.98;;;;;;;3.04;100.00;102274.78;6050967;28;20058;-73
2023/12/15 05:12:00;;;;;;;29.20;10.68;;;;;;;3.03;100.00;102279.16;6049862;28;20021;-72
2023/12/15 05:14:55;;;;;;;25.58;9.52;;;;;;;3.09;100.00;102292.03;6049465;28;20065;-71
2023/12/15 05:17:50;;;;;;;35.03;10.97;;;;;;;3.06;100.00;102283.44;6049639;28;20062;-73
2023/12/15 05:20:46;;;;;;;31.80;10.00;;;;;;;3.09;100.00;102292.03;6050075;28;20022;-72
2023/12/15 05:23:41;;;;;;;30.20;11.23;;;;;;;3.09;100.00;102294.66;6049670;28;20034;-72
2023/12/15 05:26:36;;;;;;;36.00;11.33;;;;;;;3.12;100.00;102301.53;6052344;28;20269;-72
2023/12/15 05:29:32;;;;;;;26.23;9.57;;;;;;;3.05;100.00;102290.44;6046886;28;20034;-73
2023/12/15 05:32:27;;;;;;;31.53;9.97;;;;;;;3.15;100.00;102307.53;6049742;28;20025;-72
2023/12/15 05:35:22;;;;;;;31.77;10.63;;;;;;;3.10;100.00;102301.56;6048488;28;20468;-73
2023/12/15 05:38:17;;;;;;;28.77;10.57;;;;;;;3.15;100.00;102318.00;6049971;28;20457;-73
2023/12/15 05:41:13;;;;;;;37.63;11.87;;;;;;;3.12;100.00;102307.63;6048670;28;20030;-72
2023/12/15 05:44:08;;;;;;;32.63;11.13;;;;;;;3.13;100.00;102314.56;6044881;28;20033;-71
2023/12/15 05:47:04;;;;;;;34.42;12.18;;;;;;;3.17;100.00;102313.56;6047442;28;20038;-72
2023/12/15 05:49:59;;;;;;;35.55;11.30;;;;;;;3.18;100.00;102324.91;6049100;28;20041;-72
2023/12/15 05:52:54;;;;;;;33.33;10.90;;;;;;;3.29;100.00;102330.56;6047578;28;20124;-72
2023/12/15 05:55:52;;;;;;;32.70;11.80;;;;;;;3.30;100.00;102338.38;6047395;28;20029;-73
2023/12/15 05:58:48;;;;;;;33.83;10.38;;;;;;;3.33;100.00;102338.25;6049684;28;20272;-72
2023/12/15 06:01:44;;;;;;;34.50;12.88;;;;;;;3.29;100.00;102325.34;6048060;28;20125;-73
2023/12/15 06:04:39;;;;;;;38.57;13.13;;;;;;;3.28;100.00;102323.63;6048145;28;20045;-72
2023/12/15 06:07:34;;;;;;;34.17;11.50;;;;;;;3.31;100.00;102319.13;6049355;28;20444;-72
2023/12/15 06:10:29;;;;;;;39.80;14.33;;;;;;;3.31;100.00;102340.09;6049487;28;20034;-72
2023/12/15 06:13:25;;;;;;;36.03;13.33;;;;;;;3.30;100.00;102332.25;6047848;28;20036;-73
2023/12/15 06:16:20;;;;;;;38.23;12.40;;;;;;;3.33;100.00;102321.66;6045501;28;20037;-72
2023/12/15 06:19:16;;;;;;;39.85;11.88;;;;;;;3.32;100.00;102326.03;6047803;28;20470;-72
2023/12/15 06:22:11;;;;;;;39.37;11.43;;;;;;;3.37;100.00;102339.81;6048804;28;20473;-72
2023/12/15 06:25:08;;;;;;;39.47;12.37;;;;;;;3.36;100.00;102338.13;6048575;28;20269;-71
2023/12/15 06:28:08;;;;;;;36.40;12.27;;;;;;;3.41;100.00;102345.81;6048612;28;20030;-72
2023/12/15 06:31:05;;;;;;;35.30;12.57;;;;;;;3.37;100.00;102352.94;6048151;28;20038;-73
2023/12/15 06:34:00;;;;;;;37.25;11.18;;;;;;;3.33;100.00;102350.50;6045185;28;20121;-73
2023/12/15 06:36:56;;;;;;;37.63;11.97;;;;;;;3.41;100.00;102351.06;6048738;28;20030;-71
2023/12/15 06:39:51;;;;;;;33.03;11.00;;;;;;;3.42;100.00;102353.63;6048474;28;20030;-72
2023/12/15 06:42:46;;;;;;;35.33;11.77;;;;;;;3.40;100.00;102352.81;6047982;28;20073;-72
2023/12/15 06:45:41;;;;;;;36.00;11.63;;;;;;;3.39;100.00;102351.13;6048597;28;20030;-72
2023/12/15 06:48:37;;;;;;;35.60;11.37;;;;;;;3.47;100.00;102367.41;6043583;28;20375;-71
2023/12/15 06:51:32;;;;;;;33.87;11.53;;;;;;;3.38;100.00;102344.16;6046797;28;20034;-71
2023/12/15 06:54:27;;;;;;;37.00;12.70;;;;;;;3.47;100.00;102359.53;6047283;28;20033;-71
2023/12/15 06:57:23;;;;;;;39.87;11.83;;;;;;;3.48;100.00;102363.84;6047946;28;20710;-71
2023/12/15 07:00:20;;;;;;;41.13;12.63;;;;;;;3.41;100.00;102362.41;6047721;28;20477;-71
2023/12/15 07:03:15;;;;;;;32.80;12.88;;;;;;;3.43;100.00;102359.69;6047947;28;20034;-71
2023/12/15 07:06:12;;;;;;;38.72;12.13;;;;;;;3.45;100.00;102369.22;6048612;28;20092;-71
2023/12/15 07:09:11;;;;;;;36.20;11.63;;;;;;;3.46;100.00;102370.06;6048523;28;20530;-71
2023/12/15 07:12:08;;;;;;;38.50;13.57;;;;;;;3.48;100.00;102369.09;6044344;28;20121;-71
2023/12/15 07:15:04;;;;;;;43.97;14.65;;;;;;;3.54;100.00;102374.09;6049251;28;20037;-72
2023/12/15 07:18:00;;;;;;;40.78;12.75;;;;;;;3.54;100.00;102376.72;6049037;28;20439;-71
2023/12/15 07:20:55;;;;;;;41.47;14.55;;;;;;;3.58;100.00;102380.09;6049499;28;20053;-71
2023/12/15 07:23:50;;;;;;;35.57;12.60;;;;;;;3.60;100.00;102379.13;6048301;28;20034;-71
2023/12/15 07:26:46;;;;;;;36.23;12.07;;;;;;;3.69;100.00;102382.28;6048605;28;20809;-71
2023/12/15 07:29:41;;;;;;;41.70;13.87;;;;;;;3.70;100.00;102381.34;6050059;28;20038;-71
2023/12/15 07:32:36;;;;;;;38.00;13.63;;;;;;;3.75;100.00;102372.38;6049118;28;20042;-71
2023/12/15 07:35:31;;;;;;;37.07;12.77;;;;;;;3.75;100.00;102387.31;6049040;28;20041;-72
2023/12/15 07:38:27;;;;;;;43.13;13.90;;;;;;;3.79;100.00;102388.88;6048150;28;20032;-71
2023/12/15 07:41:22;;;;;;;42.67;14.00;;;;;;;3.86;100.00;102403.47;6048764;28;20062;-72
2023/12/15 07:44:17;;;;;;;37.63;11.83;;;;;;;3.81;100.00;102398.38;6048154;28;20030;-71
2023/12/15 07:47:13;;;;;;;35.57;11.70;;;;;;;3.92;100.00;102400.56;6049821;28;20033;-72
2023/12/15 07:50:08;;;;;;;37.55;13.20;;;;;;;3.91;100.00;102393.63;6058084;28;20036;-72
2023/12/15 07:53:03;;;;;;;37.40;13.20;;;;;;;3.98;100.00;102416.06;6055835;28;20036;-71
2023/12/15 07:55:59;;;;;;;31.53;12.30;;;;;;;3.95;100.00;102405.69;6066484;28;20042;-72
2023/12/15 07:58:55;;;;;;;35.97;12.80;;;;;;;3.99;100.00;102417.81;6061630;28;20355;-72
2023/12/15 08:01:51;;;;;;;35.72;13.55;;;;;;;3.99;100.00;102412.56;6054322;28;20036;-72
2023/12/15 08:04:47;;;;;;;33.40;11.18;;;;;;;4.03;100.00;102420.22;6033203;28;20038;-72
2023/12/15 08:07:42;;;;;;;40.53;13.07;;;;;;;4.02;100.00;102423.75;6028634;28;20038;-71
2023/12/15 08:10:37;;;;;;;41.83;14.20;;;;;;;4.06;100.00;102435.00;6028788;28;20030;-72
2023/12/15 08:13:33;;;;;;;35.07;11.87;;;;;;;4.13;100.00;102441.72;6027376;28;20169;-73
2023/12/15 08:16:30;;;;;;;33.42;12.05;;;;;;;4.15;100.00;102443.38;6026401;28;20034;-73
2023/12/15 08:19:29;;;;;;;36.50;12.38;;;;;;;4.19;100.00;102442.31;6010520;28;20056;-72
2023/12/15 08:22:24;;;;;;;33.33;12.15;;;;;;;4.23;100.00;102453.53;6027887;28;20026;-70
2023/12/15 08:25:20;;;;;;;35.33;11.23;;;;;;;4.25;100.00;102454.31;6028361;28;20040;-72
2023/12/15 08:28:15;;;;;;;42.80;12.90;;;;;;;4.32;100.00;102468.06;6025498;28;20034;-72
2023/12/15 08:31:11;;;;;;;34.72;12.93;;;;;;;4.32;100.00;102466.28;6029560;28;20328;-72
2023/12/15 08:34:06;;;;;;;26.55;10.82;;;;;;;4.43;100.00;102471.94;6010310;28;20097;-72
2023/12/15 08:37:02;;;;;;;36.20;11.57;;;;;;;4.40;100.00;102461.59;6028306;28;20034;-72
2023/12/15 08:39:58;;;;;;;30.23;12.30;;;;;;;4.47;100.00;102464.81;6028224;28;20033;-72
2023/12/15 08:42:53;;;;;;;29.80;11.95;;;;;;;4.54;100.00;102480.22;6027771;28;20034;-72
2023/12/15 08:45:48;;;;;;;32.80;11.95;;;;;;;4.58;100.00;102476.56;6029129;28;20042;-71
2023/12/15 08:48:44;;;;;;;31.13;10.33;;;;;;;4.63;100.00;102476.38;6027949;28;20030;-72
2023/12/15 08:51:39;;;;;;;28.40;11.23;;;;;;;4.74;100.00;102493.41;6028004;28;20114;-72
2023/12/15 08:54:34;;;;;;;32.10;12.03;;;;;;;4.73;100.00;102494.31;6029220;28;20041;-72
2023/12/15 08:57:30;;;;;;;28.47;10.43;;;;;;;4.82;100.00;102493.94;6027197;28;20019;-72
2023/12/15 09:00:25;;;;;;;32.20;12.00;;;;;;;4.87;100.00;102484.97;6027775;28;20037;-72
2023/12/15 09:03:20;;;;;;;31.53;10.43;;;;;;;5.01;100.00;102498.38;6026690;28;20554;-72
2023/12/15 09:06:16;;;;;;;30.17;12.30;;;;;;;4.96;100.00;102487.22;6022293;28;20478;-73
2023/12/15 09:09:11;;;;;;;25.13;10.65;;;;;;;5.01;100.00;102493.13;6029026;28;20038;-71
2023/12/15 09:12:07;;;;;;;26.80;10.17;;;;;;;5.09;100.00;102504.16;6024891;28;20042;-71
2023/12/15 09:15:03;;;;;;;24.13;9.77;;;;;;;5.24;100.00;102514.03;6027245;28;20057;-72
2023/12/15 09:17:58;;;;;;;25.70;10.68;;;;;;;5.28;100.00;102505.06;6024311;28;20022;-72
2023/12/15 09:20:54;;;;;;;21.17;9.43;;;;;;;5.50;100.00;102528.63;6027468;28;20041;-72
2023/12/15 09:23:49;;;;;;;24.97;10.73;;;;;;;5.70;100.00;102528.59;6026465;28;20034;-72
2023/12/15 09:26:45;;;;;;;24.43;9.00;;;;;;;5.69;100.00;102538.25;6025716;28;20424;-72
2023/12/15 09:29:40;;;;;;;21.83;8.02;;;;;;;5.52;100.00;102527.63;6026966;28;20485;-72
2023/12/15 09:32:35;;;;;;;21.97;9.50;;;;;;;5.60;100.00;102529.94;6026489;28;20046;-71
2023/12/15 09:35:31;;;;;;;24.47;9.77;;;;;;;5.51;100.00;102527.72;6028541;28;20026;-72
2023/12/15 09:38:26;;;;;;;25.20;10.23;;;;;;;5.56;100.00;102546.78;6026178;28;20034;-72
2023/12/15 09:41:21;;;;;;;23.23;9.87;;;;;;;5.61;100.00;102566.69;6026128;28;20130;-72
2023/12/15 09:44:18;;;;;;;27.92;10.57;;;;;;;5.60;100.00;102566.78;6026719;28;20433;-72
2023/12/15 09:47:14;;;;;;;27.02;10.05;;;;;;;5.59;100.00;102559.81;6023836;28;20042;-72
2023/12/15 09:50:11;;;;;;;26.90;9.88;;;;;;;5.61;100.00;102561.44;6026581;28;20045;-72
2023/12/15 09:53:07;;;;;;;38.17;14.65;;;;;;;5.66;100.00;102571.75;6026150;28;20092;-72
2023/12/15 09:56:03;;;;;;;27.30;11.55;;;;;;;5.63;100.00;102593.78;6026080;28;20038;-71
2023/12/15 09:58:58;;;;;;;26.35;10.77;;;;;;;5.50;100.00;102597.91;6026318;28;20089;-71
2023/12/15 10:01:53;;;;;;;28.93;10.57;;;;;;;5.45;100.00;102601.66;6025965;28;20031;-72
2023/12/15 10:04:50;;;;;;;29.43;11.23;;;;;;;5.50;100.00;102611.03;6042484;28;20440;-73
2023/12/15 10:07:45;;;;;;;29.60;11.75;;;;;;;5.42;100.00;102600.00;6049412;28;20037;-71
2023/12/15 10:10:41;;;;;;;29.75;10.68;;;;;;;5.39;100.00;102603.63;6049645;28;20052;-71
2023/12/15 10:13:40;;;;;;;27.50;11.07;;;;;;;5.45;100.00;102610.41;6047342;28;20096;-71
2023/12/15 10:16:37;;;;;;;32.83;11.13;;;;;;;5.43;100.00;102624.53;6046674;28;20092;-72
2023/12/15 10:19:32;;;;;;;41.25;12.02;;;;;;;5.44;100.00;102627.09;6048533;28;20390;-72
2023/12/15 10:22:27;;;;;;;28.45;11.25;;;;;;;5.36;100.00;102621.31;6046607;28;20057;-72
2023/12/15 10:25:23;;;;;;;32.47;11.07;;;;;;;5.43;100.00;102624.53;6054181;28;20057;-73
2023/12/15 10:28:18;;;;;;;30.90;10.98;;;;;;;5.41;100.00;102619.31;6054062;28;20465;-72
2023/12/15 10:31:14;;;;;;;33.43;11.10;;;;;;;5.43;100.00;102622.78;6058549;28;20126;-72
2023/12/15 10:34:09;;;;;;;28.93;10.50;;;;;;;5.51;100.00;102632.97;6052682;28;20045;-72
2023/12/15 10:37:04;;;;;;;27.57;10.73;;;;;;;5.48;100.00;102638.34;6057388;28;20064;-72
2023/12/15 10:40:02;;;;;;;33.38;11.27;;;;;;;5.50;100.00;102641.75;6048676;28;20355;-72
2023/12/15 10:42:57;;;;;;;34.45;11.88;;;;;;;5.55;100.00;102632.75;6048963;28;20113;-72
2023/12/15 10:45:54;;;;;;;29.15;10.88;;;;;;;5.59;100.00;102621.19;6045610;28;20095;-72
2023/12/15 10:48:50;;;;;;;33.13;11.20;;;;;;;5.71;100.00;102636.41;6054938;28;20044;-72
2023/12/15 10:51:46;;;;;;;31.65;11.55;;;;;;;5.80;100.00;102619.38;6052008;28;20026;-72
2023/12/15 10:54:43;;;;;;;33.58;10.85;;;;;;;5.89;100.00;102613.72;6047510;28;20477;-71
2023/12/15 10:57:38;;;;;;;31.48;10.23;;;;;;;5.86;100.00;102609.47;6044826;28;20032;-73
2023/12/15 11:00:33;;;;;;;31.17;9.93;;;;;;;6.08;100.00;102621.66;6042196;28;20034;-72
2023/12/15 11:03:29;;;;;;;32.27;10.77;;;;;;;6.05;100.00;102613.88;6046336;28;20301;-72
2023/12/15 11:06:31;;;;;;;29.23;11.05;;;;;;;6.13;100.00;102627.56;6046041;28;20297;-72
2023/12/15 11:09:29;;;;;;;31.98;9.77;;;;;;;6.20;100.00;102626.31;6046792;28;20465;-72
2023/12/15 11:12:29;;;;;;;26.15;10.18;;;;;;;6.23;100.00;102613.03;6046125;28;20037;-72
2023/12/15 11:15:26;;;;;;;32.92;9.05;;;;;;;6.30;100.00;102628.50;6041088;28;20034;-72
2023/12/15 11:18:21;;;;;;;26.88;10.05;;;;;;;6.34;100.00;102616.88;6045877;28;20034;-72
2023/12/15 11:21:18;;;;;;;28.53;8.80;;;;;;;6.42;100.00;102629.69;6046909;28;20440;-73
2023/12/15 11:24:14;;;;;;;30.38;10.60;;;;;;;6.41;100.00;102620.09;6048317;28;20093;-73
2023/12/15 11:27:13;;;;;;;30.70;8.82;;;;;;;6.48;100.00;102629.41;6052669;28;20088;-71
2023/12/15 11:30:27;;;;;;;33.75;9.57;;;;;;;6.43;100.00;102615.59;6044943;28;20080;-72
2023/12/15 11:33:32;;;;;;;32.85;9.95;;;;;;;6.43;100.00;102621.72;6059750;28;20022;-72
2023/12/15 11:36:30;;;;;;;25.17;9.07;;;;;;;6.39;100.00;102619.28;6060505;28;20033;-73
2023/12/15 11:39:28;;;;;;;29.90;9.95;;;;;;;6.39;100.00;102627.19;6062740;28;20034;-72
2023/12/15 11:42:23;;;;;;;27.73;10.02;;;;;;;6.36;100.00;102620.28;6064221;28;20036;-72
2023/12/15 11:45:19;;;;;;;24.55;9.43;;;;;;;6.37;100.00;102626.41;6053746;28;20447;-72
2023/12/15 11:48:14;;;;;;;29.60;9.30;;;;;;;6.44;100.00;102633.94;6049338;28;20571;-73
2023/12/15 11:51:10;;;;;;;31.90;9.85;;;;;;;6.49;100.00;102634.59;6052035;28;20084;-73
2023/12/15 11:54:05;;;;;;;23.17;8.80;;;;;;;6.44;100.00;102638.38;6054010;28;20084;-73
2023/12/15 11:57:00;;;;;;;27.90;9.75;;;;;;;6.42;100.00;102627.91;6053849;28;20292;-74
2023/12/15 11:59:56;;;;;;;33.00;10.03;;;;;;;6.48;100.00;102640.78;6046311;28;20048;-73
2023/12/15 12:02:52;;;;;;;36.15;10.77;;;;;;;6.41;100.00;102634.09;6050303;28;20501;-73
2023/12/15 12:05:53;;;;;;;37.00;11.52;;;;;;;6.50;100.00;102643.34;6043503;28;20053;-73
2023/12/15 12:08:48;;;;;;;29.77;9.60;;;;;;;6.42;100.00;102634.94;6049408;28;20030;-73
2023/12/15 12:11:45;;;;;;;30.37;10.03;;;;;;;6.45;100.00;102638.31;6050624;28;20065;-73
2023/12/15 12:14:43;;;;;;;25.85;9.48;;;;;;;6.53;100.00;102649.34;6040620;28;20478;-73
2023/12/15 12:17:39;;;;;;;34.05;9.65;;;;;;;6.48;100.00;102651.34;6045775;28;20481;-73
2023/12/15 12:20:34;;;;;;;29.15;9.65;;;;;;;6.51;100.00;102642.44;6049958;28;20040;-73
2023/12/15 12:23:30;;;;;;;21.77;8.50;;;;;;;6.64;100.00;102651.47;6051380;28;20033;-72
2023/12/15 12:26:27;;;;;;;28.40;8.75;;;;;;;6.59;100.00;102649.06;6050669;28;20432;-72
2023/12/15 12:29:22;;;;;;;34.53;10.25;;;;;;;6.63;100.00;102635.72;6043915;28;20042;-72
2023/12/15 12:32:18;;;;;;;27.33;8.80;;;;;;;6.71;100.00;102639.72;6049388;28;20072;-72
2023/12/15 12:35:13;;;;;;;29.67;9.40;;;;;;;6.70;100.00;102645.91;6049849;28;20034;-72
2023/12/15 12:38:09;;;;;;;26.80;8.88;;;;;;;6.73;100.00;102640.47;6049614;28;20477;-72
2023/12/15 12:41:06;;;;;;;22.52;8.98;;;;;;;6.84;100.00;102651.38;6051644;28;20036;-72
2023/12/15 12:44:01;;;;;;;34.38;9.25;;;;;;;6.81;100.00;102643.59;6049060;28;20040;-74
2023/12/15 12:46:57;;;;;;;25.58;9.98;;;;;;;6.87;100.00;102648.59;6049890;28;20042;-73
2023/12/15 12:49:52;;;;;;;24.17;9.00;;;;;;;6.82;100.00;102645.28;6047174;28;20120;-72
2023/12/15 12:52:48;;;;;;;24.20;9.27;;;;;;;6.88;100.00;102660.81;6044638;28;20393;-73
2023/12/15 12:55:44;;;;;;;27.92;9.65;;;;;;;6.92;100.00;102667.66;6050846;28;20381;-73
2023/12/15 12:58:40;;;;;;;31.33;8.68;;;;;;;6.88;100.00;102670.50;6048602;28;20033;-72
2023/12/15 13:01:35;;;;;;;29.50;8.53;;;;;;;6.89;100.00;102669.59;6048515;28;20374;-72
2023/12/15 13:04:31;;;;;;;24.88;7.97;;;;;;;6.94;100.00;102676.34;6048532;28;20477;-73
2023/12/15 13:07:26;;;;;;;22.40;8.23;;;;;;;6.93;100.00;102669.34;6047011;28;20083;-73
2023/12/15 13:10:21;;;;;;;26.80;8.70;;;;;;;6.98;100.00;102684.97;6044627;28;20038;-72
2023/12/15 13:13:16;;;;;;;28.60;8.37;;;;;;;7.00;100.00;102686.59;6049375;28;20113;-74
2023/12/15 13:16:14;;;;;;;26.60;8.93;;;;;;;6.99;100.00;102684.88;6048871;28;20121;-72
2023/12/15 13:19:10;;;;;;;26.10;7.85;;;;;;;7.01;100.00;102683.03;6049474;28;20465;-73
2023/12/15 13:22:06;;;;;;;23.17;7.88;;;;;;;6.95;100.00;102682.47;6043549;28;20042;-73